createdAt,value
2024-04-25T00:01:30.007Z,5.72
2024-04-25T00:04:00.447Z,5.15
2024-04-25T00:06:29.884Z,2.72
2024-04-25T00:08:59.675Z,6.40
2024-04-25T00:11:29.365Z,5.68
2024-04-25T00:13:58.872Z,6.45
2024-04-25T00:16:31.031Z,4.15
2024-04-25T00:19:01.441Z,4.65
2024-04-25T00:21:30.918Z,6.00
2024-04-25T00:24:01.320Z,3.97
2024-04-25T00:26:30.785Z,3.35
2024-04-25T00:29:02.424Z,7.25
2024-04-25T00:31:36.734Z,9.57
2024-04-25T00:34:06.249Z,3.83
2024-04-25T00:36:35.814Z,10.02
2024-04-25T00:39:05.276Z,8.40
2024-04-25T00:41:34.899Z,9.57
2024-04-25T00:44:04.468Z,5.25
2024-04-25T00:46:36.614Z,5.63
2024-04-25T00:49:06.305Z,5.07
2024-04-25T00:51:36.964Z,3.08
2024-04-25T00:54:07.385Z,4.93
2024-04-25T00:56:37.938Z,9.85
2024-04-25T00:59:08.642Z,6.10
2024-04-25T01:01:43.560Z,5.78
2024-04-25T01:04:14.897Z,4.05
2024-04-25T01:06:45.160Z,5.88
2024-04-25T01:09:14.685Z,8.65
2024-04-25T01:11:44.242Z,3.65
2024-04-25T01:14:13.728Z,6.68
2024-04-25T01:16:45.956Z,3.22
2024-04-25T01:19:16.062Z,6.18
2024-04-25T01:21:45.543Z,5.40
2024-04-25T01:24:19.166Z,4.10
2024-04-25T01:26:52.832Z,4.28
2024-04-25T01:29:22.728Z,6.13
2024-04-25T01:31:53.386Z,7.22
2024-04-25T01:34:23.530Z,4.85
2024-04-25T01:36:53.200Z,5.10
2024-04-25T01:39:23.156Z,6.22
2024-04-25T01:41:55.216Z,8.02
2024-04-25T01:44:24.881Z,7.97
2024-04-25T01:46:56.155Z,5.00
2024-04-25T01:49:25.704Z,8.55
2024-04-25T01:51:55.152Z,7.43
2024-04-25T01:54:24.589Z,6.07
2024-04-25T01:56:56.721Z,8.30
2024-04-25T01:59:26.250Z,7.55
2024-04-25T02:01:56.378Z,7.57
2024-04-25T02:04:26.266Z,7.55
2024-04-25T02:06:55.684Z,8.02
2024-04-25T02:09:25.137Z,10.43
2024-04-25T02:11:57.263Z,6.60
2024-04-25T02:14:26.852Z,5.97
2024-04-25T02:16:56.410Z,5.90
2024-04-25T02:19:25.887Z,10.40
2024-04-25T02:22:11.233Z,3.35
2024-04-25T02:24:56.797Z,6.78
2024-04-25T02:27:28.894Z,6.45
2024-04-25T02:29:58.412Z,6.75
2024-04-25T02:32:28.064Z,5.03
2024-04-25T02:34:57.600Z,10.98
2024-04-25T02:37:27.072Z,5.07
2024-04-25T02:39:53.931Z,5.72
2024-04-25T02:42:23.413Z,11.45
2024-04-25T02:44:55.485Z,5.53
2024-04-25T02:47:22.382Z,8.20
2024-04-25T02:49:51.841Z,6.50
2024-04-25T02:52:18.733Z,4.60
2024-04-25T02:54:48.577Z,5.55
2024-04-25T02:57:15.421Z,6.00
2024-04-25T02:59:44.936Z,7.53
2024-04-25T03:02:14.608Z,12.20
2024-04-25T03:04:44.135Z,7.57
2024-04-25T03:07:10.964Z,6.30
2024-04-25T03:09:40.456Z,10.02
2024-04-25T03:12:07.814Z,5.35
2024-04-25T03:14:38.366Z,9.52
2024-04-25T03:17:05.227Z,4.53
2024-04-25T03:19:37.328Z,5.60
2024-04-25T03:22:04.196Z,8.48
2024-04-25T03:24:33.630Z,9.10
2024-04-25T03:27:00.438Z,5.40
2024-04-25T03:29:29.966Z,4.20
2024-04-25T03:31:56.800Z,5.07
2024-04-25T03:34:26.488Z,7.10
2024-04-25T03:36:59.078Z,9.02
2024-04-25T03:39:28.587Z,8.23
2024-04-25T03:41:58.163Z,4.78
2024-04-25T03:44:27.647Z,8.65
2024-04-25T03:46:57.208Z,8.07
2024-04-25T03:49:26.623Z,7.70
2024-04-25T03:52:00.609Z,9.23
2024-04-25T03:54:30.229Z,10.48
2024-04-25T03:57:00.365Z,8.80
2024-04-25T03:59:27.590Z,10.25
2024-04-25T04:01:59.009Z,8.75
2024-04-25T04:04:31.692Z,5.60
2024-04-25T04:07:03.830Z,12.55
2024-04-25T04:09:33.279Z,6.75
2024-04-25T04:12:04.084Z,8.23
2024-04-25T04:14:33.722Z,9.57
2024-04-25T04:17:03.295Z,9.20
2024-04-25T04:19:32.719Z,5.78
2024-04-25T04:22:04.856Z,7.53
2024-04-25T04:24:34.390Z,10.88
2024-04-25T04:27:03.865Z,8.93
2024-04-25T04:29:33.394Z,8.55
2024-04-25T04:32:02.879Z,9.27
2024-04-25T04:34:32.458Z,9.10
2024-04-25T04:37:04.775Z,7.53
2024-04-25T04:39:34.269Z,7.45
2024-04-25T04:42:04.089Z,7.28
2024-04-25T04:44:33.833Z,8.40
2024-04-25T04:47:03.386Z,6.88
2024-04-25T04:49:32.850Z,10.10
2024-04-25T04:52:05.411Z,9.75
2024-04-25T04:54:34.858Z,10.45
2024-04-25T04:57:04.320Z,14.38
2024-04-25T04:59:33.895Z,8.05
2024-04-25T05:02:03.856Z,11.82
2024-04-25T05:04:33.504Z,8.65
2024-04-25T05:07:05.663Z,9.52
2024-04-25T05:09:35.185Z,9.05
2024-04-25T05:12:05.097Z,7.88
2024-04-25T05:14:34.984Z,8.80
2024-04-25T05:17:04.845Z,14.90
2024-04-25T05:19:35.013Z,7.57
2024-04-25T05:22:07.103Z,10.18
2024-04-25T05:24:36.607Z,8.98
2024-04-25T05:27:06.288Z,11.32
2024-04-25T05:29:36.938Z,8.70
2024-04-25T05:32:07.655Z,7.93
2024-04-25T05:34:37.187Z,9.65
2024-04-25T05:37:09.298Z,10.07
2024-04-25T05:39:38.839Z,7.35
2024-04-25T05:42:09.902Z,10.45
2024-04-25T05:44:39.510Z,7.95
2024-04-25T05:47:13.726Z,8.48
2024-04-25T05:49:44.327Z,5.60
2024-04-25T05:52:16.991Z,15.48
2024-04-25T05:54:46.744Z,15.30
2024-04-25T05:57:16.428Z,11.68
2024-04-25T05:59:46.152Z,8.50
2024-04-25T06:02:15.673Z,10.90
2024-04-25T06:04:45.195Z,11.98
2024-04-25T06:07:17.540Z,13.95
2024-04-25T06:09:47.042Z,12.70
2024-04-25T06:12:16.893Z,8.18
2024-04-25T06:14:46.725Z,12.45
2024-04-25T06:17:16.551Z,7.78
2024-04-25T06:19:48.672Z,13.63
2024-04-25T06:22:21.171Z,17.50
2024-04-25T06:24:50.635Z,10.88
2024-04-25T06:27:20.099Z,10.10
2024-04-25T06:29:49.576Z,7.57
2024-04-25T06:32:20.250Z,9.25
2024-04-25T06:34:51.921Z,6.80
2024-04-25T06:37:24.020Z,14.80
2024-04-25T06:39:53.573Z,11.75
2024-04-25T06:42:23.121Z,8.98
2024-04-25T06:44:54.054Z,8.10
2024-04-25T06:47:24.261Z,8.23
2024-04-25T06:49:54.007Z,9.23
2024-04-25T06:52:26.134Z,9.85
2024-04-25T06:54:55.586Z,6.78
2024-04-25T06:57:25.076Z,11.73
2024-04-25T06:59:54.704Z,11.38
2024-04-25T07:02:24.494Z,11.50
2024-04-25T07:04:56.437Z,10.98
2024-04-25T07:07:29.925Z,10.32
2024-04-25T07:09:59.369Z,11.70
2024-04-25T07:12:31.572Z,8.15
2024-04-25T07:15:01.846Z,7.68
2024-04-25T07:17:31.565Z,12.48
2024-04-25T07:20:01.715Z,11.00
2024-04-25T07:22:34.029Z,8.98
2024-04-25T07:25:06.168Z,13.57
2024-04-25T07:27:35.977Z,8.50
2024-04-25T07:30:05.506Z,12.70
2024-04-25T07:32:35.206Z,10.73
2024-04-25T07:35:05.214Z,7.13
2024-04-25T07:37:39.036Z,10.93
2024-04-25T07:40:09.979Z,12.10
2024-04-25T07:42:40.087Z,11.70
2024-04-25T07:45:10.559Z,8.52
2024-04-25T07:47:40.548Z,13.07
2024-04-25T07:50:10.483Z,7.78
2024-04-25T07:52:42.685Z,8.30
2024-04-25T07:55:12.168Z,9.50
2024-04-25T07:57:41.796Z,8.82
2024-04-25T08:00:12.577Z,8.57
2024-04-25T08:02:42.190Z,7.93
2024-04-25T08:05:11.870Z,6.82
2024-04-25T08:07:43.986Z,12.57
2024-04-25T08:10:13.445Z,6.35
2024-04-25T08:12:45.068Z,6.75
2024-04-25T08:15:14.780Z,6.15
2024-04-25T08:17:46.327Z,8.73
2024-04-25T08:20:16.057Z,12.88
2024-04-25T08:22:49.034Z,9.77
2024-04-25T08:25:18.591Z,5.70
2024-04-25T08:27:48.136Z,10.93
2024-04-25T08:30:17.625Z,7.05
2024-04-25T08:32:47.270Z,12.10
2024-04-25T08:35:17.347Z,8.77
2024-04-25T08:37:49.588Z,7.72
2024-04-25T08:40:19.286Z,7.13
2024-04-25T08:42:51.672Z,9.45
2024-04-25T08:45:22.337Z,7.95
2024-04-25T08:47:54.964Z,5.90
2024-04-25T08:50:26.075Z,9.10
2024-04-25T08:53:00.008Z,7.03
2024-04-25T08:55:29.551Z,3.50
2024-04-25T08:58:00.299Z,9.43
2024-04-25T09:00:29.876Z,6.35
2024-04-25T09:03:01.664Z,7.43
2024-04-25T09:05:35.028Z,8.50
2024-04-25T09:08:08.630Z,4.72
2024-04-25T09:10:41.920Z,4.47
2024-04-25T09:13:12.047Z,7.25
2024-04-25T09:15:41.538Z,4.20
2024-04-25T09:18:11.300Z,6.60
2024-04-25T09:20:40.916Z,8.20
2024-04-25T09:23:13.125Z,6.82
2024-04-25T09:25:42.604Z,9.07
2024-04-25T09:28:13.958Z,8.13
2024-04-25T09:30:44.199Z,5.35
2024-04-25T09:33:13.996Z,7.97
2024-04-25T09:35:46.634Z,6.10
2024-04-25T09:38:19.154Z,3.85
2024-04-25T09:40:51.400Z,4.05
2024-04-25T09:43:22.126Z,4.43
2024-04-25T09:45:53.419Z,8.52
2024-04-25T09:48:24.882Z,5.28
2024-04-25T09:50:58.573Z,4.45
2024-04-25T09:53:43.154Z,7.10
2024-04-25T09:56:17.790Z,8.73
2024-04-25T09:58:53.926Z,4.95
2024-04-25T10:01:25.031Z,8.43
2024-04-25T10:03:54.696Z,7.03
2024-04-25T10:06:25.142Z,4.75
2024-04-25T10:08:59.036Z,6.38
2024-04-25T10:11:32.416Z,5.43
2024-04-25T10:14:02.618Z,5.88
2024-04-25T10:16:32.355Z,6.57
2024-04-25T10:19:02.031Z,6.85
2024-04-25T10:21:31.779Z,9.68
2024-04-25T10:24:13.338Z,7.22
2024-04-25T10:26:48.785Z,5.88
2024-04-25T10:29:18.574Z,7.15
2024-04-25T10:31:48.191Z,4.35
2024-04-25T10:34:17.757Z,3.53
2024-04-25T10:36:48.974Z,10.57
2024-04-25T10:39:21.275Z,3.58
2024-04-25T10:41:51.534Z,5.57
2024-04-25T10:44:21.395Z,4.90
2024-04-25T10:46:51.660Z,2.33
2024-04-25T10:49:22.053Z,2.45
2024-04-25T10:51:51.745Z,2.65
2024-04-25T10:54:23.903Z,6.38
2024-04-25T10:56:53.467Z,5.38
2024-04-25T10:59:31.240Z,3.25
2024-04-25T11:02:04.311Z,3.75
2024-04-25T11:04:37.598Z,6.95
2024-04-25T11:07:09.341Z,2.80
2024-04-25T11:09:42.464Z,4.80
2024-04-25T11:12:13.830Z,5.18
2024-04-25T11:14:43.786Z,3.20
2024-04-25T11:17:13.518Z,3.88
2024-04-25T11:22:25.798Z,2.95
2024-04-25T11:25:16.514Z,5.72
2024-04-25T11:27:46.212Z,3.30
2024-04-25T11:30:15.738Z,5.78
2024-04-25T11:32:47.710Z,5.95
2024-04-25T11:35:20.399Z,3.83
2024-04-25T11:40:34.739Z,1.98
2024-04-25T11:43:05.944Z,2.58
2024-04-25T11:45:38.623Z,3.90
2024-04-25T11:50:38.213Z,5.18
2024-04-25T11:53:09.703Z,4.13
2024-04-25T11:55:43.041Z,8.98
2024-04-25T11:58:13.107Z,5.63
2024-04-25T12:00:49.211Z,4.93
2024-04-25T12:03:19.498Z,3.30
2024-04-25T12:05:49.544Z,3.38
2024-04-25T12:08:19.394Z,2.55
2024-04-25T12:10:54.279Z,2.30
2024-04-25T12:13:23.904Z,1.25
2024-04-25T12:15:53.452Z,3.42
2024-04-25T12:18:26.191Z,1.50
2024-04-25T12:20:58.986Z,1.73
2024-04-25T12:23:28.533Z,1.80
2024-04-25T12:26:00.789Z,1.42
2024-04-25T12:28:34.250Z,1.15
2024-04-25T12:31:05.379Z,1.73
2024-04-25T12:33:35.004Z,1.02
2024-04-25T12:36:04.888Z,0.95
2024-04-25T12:38:34.507Z,0.90
2024-04-25T12:41:07.330Z,5.50
2024-04-25T12:46:06.390Z,2.90
2024-04-25T12:48:36.019Z,2.30
2024-04-25T12:51:05.598Z,2.67
2024-04-25T12:53:35.297Z,1.90
2024-04-25T12:56:08.161Z,1.40
2024-04-25T12:58:41.822Z,1.60
2024-04-25T13:01:12.043Z,1.73
2024-04-25T13:03:42.259Z,4.07
2024-04-25T13:06:12.218Z,6.72
2024-04-25T13:08:43.431Z,4.78
2024-04-25T13:11:16.079Z,3.30
2024-04-25T13:16:17.199Z,1.13
2024-04-25T13:18:47.103Z,1.77
2024-04-25T13:21:16.660Z,1.25
2024-04-25T13:23:46.269Z,1.88
2024-04-25T13:26:21.134Z,1.92
2024-04-25T13:28:50.732Z,3.58
2024-04-25T13:31:20.918Z,2.78
2024-04-25T13:33:50.549Z,7.53
2024-04-25T13:36:20.238Z,1.88
2024-04-25T13:38:50.049Z,3.00
2024-04-25T13:41:22.249Z,1.30
2024-04-25T13:43:51.774Z,1.92
2024-04-25T13:46:21.406Z,2.20
2024-04-25T13:48:51.048Z,1.40
2024-04-25T13:51:20.684Z,2.17
2024-04-25T13:53:50.235Z,1.73
2024-04-25T13:56:22.527Z,2.50
2024-04-25T13:58:52.083Z,1.15
2024-04-25T14:01:21.737Z,1.35
2024-04-25T14:03:51.337Z,1.58
2024-04-25T14:06:20.890Z,4.75
2024-04-25T14:08:50.452Z,1.35
2024-04-25T14:11:22.899Z,1.23
2024-04-25T14:13:54.617Z,2.75
2024-04-25T14:16:24.238Z,3.28
2024-04-25T14:18:56.678Z,3.42
2024-04-25T14:21:26.418Z,1.58
2024-04-25T14:23:56.119Z,2.70
2024-04-25T14:26:44.249Z,2.50
2024-04-25T14:29:13.788Z,2.47
2024-04-25T14:31:43.312Z,1.50
2024-04-25T14:34:12.888Z,2.45
2024-04-25T14:36:42.393Z,4.18
2024-04-25T14:39:12.119Z,2.22
2024-04-25T14:41:47.043Z,3.50
2024-04-25T14:44:16.648Z,2.28
2024-04-25T14:46:46.256Z,2.72
2024-04-25T14:49:16.118Z,1.77
2024-04-25T14:51:45.586Z,2.28
2024-04-25T14:54:15.070Z,1.98
2024-04-25T14:56:47.286Z,10.85
2024-04-25T14:59:16.893Z,3.15
2024-04-25T15:01:46.410Z,2.35
2024-04-25T15:04:15.893Z,5.57
2024-04-25T15:06:45.361Z,5.25
2024-04-25T15:09:16.374Z,6.00
2024-04-25T15:12:02.738Z,5.15
2024-04-25T15:14:32.316Z,14.35
2024-04-25T15:17:01.952Z,6.30
2024-04-25T15:19:32.247Z,6.95
2024-04-25T15:22:01.792Z,4.47
2024-04-25T15:24:31.491Z,1.42
2024-04-25T15:27:03.632Z,1.45
2024-04-25T15:29:33.252Z,2.47
2024-04-25T15:32:02.884Z,4.20
2024-04-25T15:34:32.558Z,3.90
2024-04-25T15:37:02.052Z,2.92
2024-04-25T15:39:31.714Z,3.85
2024-04-25T15:42:03.989Z,1.90
2024-04-25T15:44:33.509Z,3.03
2024-04-25T15:47:02.984Z,2.03
2024-04-25T15:49:32.550Z,3.42
2024-04-25T15:52:02.077Z,2.83
2024-04-25T15:54:31.653Z,4.15
2024-04-25T15:57:03.785Z,2.00
2024-04-25T15:59:33.933Z,2.65
2024-04-25T16:02:03.520Z,3.10
2024-04-25T16:04:33.031Z,1.75
2024-04-25T16:07:02.506Z,5.28
2024-04-25T16:09:31.944Z,2.88
2024-04-25T16:12:04.082Z,3.13
2024-04-25T16:14:33.976Z,5.57
2024-04-25T16:17:03.486Z,4.43
2024-04-25T16:19:35.007Z,3.15
2024-04-25T16:22:04.586Z,3.03
2024-04-25T16:24:34.230Z,2.40
2024-04-25T16:27:07.572Z,2.78
2024-04-25T16:29:37.393Z,2.08
2024-04-25T16:32:07.133Z,2.72
2024-04-25T16:34:36.673Z,2.40
2024-04-25T16:37:06.329Z,4.03
2024-04-25T16:39:36.159Z,1.40
2024-04-25T16:42:08.668Z,3.92
2024-04-25T16:44:40.025Z,3.85
2024-04-25T16:47:09.730Z,4.25
2024-04-25T16:49:39.292Z,3.30
2024-04-25T16:52:10.446Z,1.30
2024-04-25T16:54:40.279Z,1.90
2024-04-25T16:57:12.538Z,3.15
2024-04-25T16:59:42.670Z,2.13
2024-04-25T17:02:12.361Z,4.13
2024-04-25T17:04:43.777Z,3.72
2024-04-25T17:07:14.635Z,3.03
2024-04-25T17:09:44.490Z,3.67
2024-04-25T17:12:17.883Z,1.45
2024-04-25T17:14:47.410Z,2.00
2024-04-25T17:17:17.116Z,3.13
2024-04-25T17:19:46.631Z,3.05
2024-04-25T17:22:16.184Z,4.75
2024-04-25T17:24:45.786Z,6.15
2024-04-25T17:27:17.928Z,7.20
2024-04-25T17:29:47.770Z,4.28
2024-04-25T17:32:17.558Z,3.78
2024-04-25T17:34:49.686Z,2.40
2024-04-25T17:37:19.219Z,3.78
2024-04-25T17:39:48.718Z,1.88
2024-04-25T17:42:20.921Z,3.00
2024-04-25T17:44:54.242Z,4.53
2024-04-25T17:47:23.811Z,3.22
2024-04-25T17:49:53.463Z,3.78
2024-04-25T17:52:23.036Z,1.75
2024-04-25T17:54:52.940Z,3.03
2024-04-25T17:57:25.216Z,2.20
2024-04-25T17:59:54.729Z,2.67
2024-04-25T18:02:24.984Z,3.35
2024-04-25T18:04:54.818Z,7.22
2024-04-25T18:07:26.855Z,4.10
2024-04-25T18:12:29.384Z,4.97
2024-04-25T18:14:58.925Z,5.97
2024-04-25T18:17:28.504Z,5.53
2024-04-25T18:19:58.070Z,7.93
2024-04-25T18:22:27.677Z,6.65
2024-04-25T18:24:57.183Z,6.93
2024-04-25T18:27:31.862Z,13.63
2024-04-25T18:30:01.510Z,12.32
2024-04-25T18:32:32.226Z,10.02
2024-04-25T18:35:01.836Z,11.02
2024-04-25T18:37:31.905Z,10.65
2024-04-25T18:40:02.112Z,10.68
2024-04-25T18:42:34.301Z,6.65
2024-04-25T18:45:03.834Z,4.80
2024-04-25T18:47:33.460Z,5.72
2024-04-25T18:50:03.033Z,4.93
2024-04-25T18:52:32.578Z,4.47
2024-04-25T18:55:02.139Z,4.32
2024-04-25T18:57:34.271Z,4.85
2024-04-25T19:00:05.109Z,3.38
2024-04-25T19:02:35.365Z,4.00
2024-04-25T19:05:05.354Z,4.68
2024-04-25T19:07:35.476Z,5.60
2024-04-25T19:10:05.495Z,4.28
2024-04-25T19:12:41.925Z,3.33
2024-04-25T19:15:12.078Z,5.90
2024-04-25T19:17:41.796Z,4.05
2024-04-25T19:20:13.006Z,3.80
2024-04-25T19:22:42.725Z,2.85
2024-04-25T19:25:12.424Z,5.40
2024-04-25T19:27:46.008Z,4.72
2024-04-25T19:30:15.634Z,3.40
2024-04-25T19:32:45.303Z,5.25
2024-04-25T19:35:15.955Z,4.90
2024-04-25T19:37:45.543Z,8.88
2024-04-25T19:40:15.075Z,12.77
2024-04-25T19:42:47.260Z,7.93
2024-04-25T19:45:17.066Z,5.28
2024-04-25T19:47:46.825Z,4.88
2024-04-25T19:50:16.989Z,6.45
2024-04-25T19:52:46.916Z,7.68
2024-04-25T19:55:16.406Z,7.88
2024-04-25T19:57:48.700Z,10.52
2024-04-25T20:00:19.508Z,6.72
2024-04-25T20:02:49.464Z,10.18
2024-04-25T20:05:19.257Z,9.48
2024-04-25T20:07:49.121Z,8.13
2024-04-25T20:10:18.883Z,10.48
2024-04-25T20:12:51.374Z,8.60
2024-04-25T20:15:20.921Z,6.68
2024-04-25T20:18:06.292Z,9.40
2024-04-25T20:21:00.334Z,7.32
2024-04-25T20:23:30.021Z,10.05
2024-04-25T20:25:59.613Z,9.73
2024-04-25T20:28:31.778Z,8.55
2024-04-25T20:31:01.277Z,7.47
2024-04-25T20:33:30.891Z,10.20
2024-04-25T20:36:05.631Z,9.90
2024-04-25T20:38:35.975Z,8.73
2024-04-25T20:41:08.642Z,6.63
2024-04-25T20:43:41.264Z,9.10
2024-04-25T20:46:11.289Z,7.15
2024-04-25T20:48:47.660Z,6.55
2024-04-25T20:51:17.431Z,8.20
2024-04-25T20:53:47.013Z,7.45
2024-04-25T20:56:16.618Z,6.25
2024-04-25T20:58:48.799Z,6.25
2024-04-25T21:01:20.808Z,7.72
2024-04-25T21:03:50.320Z,8.20
2024-04-25T21:06:19.937Z,9.55
2024-04-25T21:08:49.442Z,11.70
2024-04-25T21:11:18.993Z,6.38
2024-04-25T21:13:53.526Z,7.38
2024-04-25T21:16:34.679Z,8.90
2024-04-25T21:19:04.303Z,9.85
2024-04-25T21:21:33.930Z,8.35
2024-04-25T21:24:03.485Z,10.55
2024-04-25T21:26:33.123Z,9.70
2024-04-25T21:29:05.277Z,7.55
2024-04-25T21:31:34.712Z,7.20
2024-04-25T21:34:04.428Z,10.52
2024-04-25T21:36:39.105Z,7.00
2024-04-25T21:39:08.755Z,10.90
2024-04-25T21:41:40.405Z,7.63
2024-04-25T21:44:13.974Z,9.60
2024-04-25T21:46:45.457Z,10.63
2024-04-25T21:49:13.840Z,9.63
2024-04-25T21:51:46.041Z,5.68
2024-04-25T21:54:15.734Z,12.40
2024-04-25T21:56:46.254Z,7.72
2024-04-25T21:59:19.191Z,6.88
2024-04-25T22:01:55.539Z,6.03
2024-04-25T22:04:25.881Z,5.90
2024-04-25T22:06:57.629Z,11.05
2024-04-25T22:09:27.182Z,7.63
2024-04-25T22:11:56.746Z,7.85
2024-04-25T22:14:29.012Z,8.50
2024-04-25T22:16:58.560Z,9.45
2024-04-25T22:19:28.299Z,11.13
2024-04-25T22:21:57.895Z,9.75
2024-04-25T22:24:27.534Z,10.20
2024-04-25T22:26:54.578Z,10.02
2024-04-25T22:29:24.588Z,7.60
2024-04-25T22:31:56.770Z,11.90
2024-04-25T22:34:26.515Z,9.55
2024-04-25T22:36:56.105Z,8.75
2024-04-25T22:39:23.074Z,9.73
2024-04-25T22:41:53.272Z,11.63
2024-04-25T22:44:20.325Z,8.93
2024-04-25T22:46:49.804Z,8.43
2024-04-25T22:49:22.194Z,12.75
2024-04-25T22:51:51.906Z,7.88
2024-04-25T22:54:21.571Z,7.97
2024-04-25T22:56:51.240Z,8.45
2024-04-25T22:59:20.843Z,6.75
2024-04-25T23:01:50.482Z,9.73
2024-04-25T23:04:23.209Z,13.80
2024-04-25T23:06:52.852Z,9.05
2024-04-25T23:09:24.357Z,8.07
2024-04-25T23:11:53.984Z,7.75
2024-04-25T23:14:23.663Z,10.95
2024-04-25T23:16:53.174Z,10.07
2024-04-25T23:19:25.640Z,11.85
2024-04-25T23:21:55.221Z,11.88
2024-04-25T23:24:24.806Z,9.00
2024-04-25T23:26:55.505Z,7.38
2024-04-25T23:29:25.203Z,7.00
2024-04-25T23:31:56.740Z,7.50
2024-04-25T23:34:28.929Z,7.53
2024-04-25T23:36:58.426Z,7.15
2024-04-25T23:39:25.345Z,10.52
2024-04-25T23:41:54.942Z,9.00
2024-04-25T23:44:24.580Z,10.02
2024-04-25T23:46:54.273Z,8.13
2024-04-25T23:49:23.870Z,8.23
2024-04-25T23:51:56.025Z,7.93
2024-04-25T23:54:25.500Z,11.77
2024-04-25T23:56:54.980Z,9.85
2024-04-25T23:59:25.205Z,8.85
